Map

Track Data

SID SEASON NUMBER BASIN SUBBASIN NAME ISO_TIME NATURE LAT LON WMO_WIND WMO_PRES WMO_AGENCY TRACK_TYPE DIST2LAND LANDFALL IFLAG USA_AGENCY USA_ATCF_ID USA_LAT USA_LON USA_RECORD USA_STATUS USA_WIND USA_PRES USA_SSHS USA_R34_NE USA_R34_SE USA_R34_SW USA_R34_NW USA_R50_NE USA_R50_SE USA_R50_SW USA_R50_NW USA_R64_NE USA_R64_SE USA_R64_SW USA_R64_NW USA_POCI USA_ROCI USA_RMW USA_EYE TOKYO_LAT TOKYO_LON TOKYO_GRADE TOKYO_WIND TOKYO_PRES TOKYO_R50_DIR TOKYO_R50_LONG TOKYO_R50_SHORT TOKYO_R30_DIR TOKYO_R30_LONG TOKYO_R30_SHORT TOKYO_LAND CMA_LAT CMA_LON CMA_CAT CMA_WIND CMA_PRES HKO_LAT HKO_LON HKO_CAT HKO_WIND HKO_PRES NEWDELHI_LAT NEWDELHI_LON NEWDELHI_GRADE NEWDELHI_WIND NEWDELHI_PRES NEWDELHI_CI NEWDELHI_DP NEWDELHI_POCI REUNION_LAT REUNION_LON REUNION_TYPE REUNION_WIND REUNION_PRES REUNION_TNUM REUNION_CI REUNION_RMW REUNION_R34_NE REUNION_R34_SE REUNION_R34_SW REUNION_R34_NW REUNION_R50_NE REUNION_R50_SE REUNION_R50_SW REUNION_R50_NW REUNION_R64_NE REUNION_R64_SE REUNION_R64_SW REUNION_R64_NW BOM_LAT BOM_LON BOM_TYPE BOM_WIND BOM_PRES BOM_TNUM BOM_CI BOM_RMW BOM_R34_NE BOM_R34_SE BOM_R34_SW BOM_R34_NW BOM_R50_NE BOM_R50_SE BOM_R50_SW BOM_R50_NW BOM_R64_NE BOM_R64_SE BOM_R64_SW BOM_R64_NW BOM_ROCI BOM_POCI BOM_EYE BOM_POS_METHOD BOM_PRES_METHOD NADI_LAT NADI_LON NADI_CAT NADI_WIND NADI_PRES WELLINGTON_LAT WELLINGTON_LON WELLINGTON_WIND WELLINGTON_PRES DS824_LAT DS824_LON DS824_STAGE DS824_WIND DS824_PRES TD9636_LAT TD9636_LON TD9636_STAGE TD9636_WIND TD9636_PRES TD9635_LAT TD9635_LON TD9635_WIND TD9635_PRES TD9635_ROCI NEUMANN_LAT NEUMANN_LON NEUMANN_CLASS NEUMANN_WIND NEUMANN_PRES MLC_LAT MLC_LON MLC_CLASS MLC_WIND MLC_PRES USA_GUST BOM_GUST BOM_GUST_PER REUNION_GUST REUNION_GUST_PER USA_SEAHGT USA_SEARAD_NE USA_SEARAD_SE USA_SEARAD_SW USA_SEARAD_NW STORM_SPEED STORM_DIR
1913240N16118 1913 41 WP MM NOT_NAMED 1913-08-28 10:00:00 NR 15.7000 117.900 main 195 195 __________O___ -1 15.7000 117.900 7 1 271
1913240N16118 1913 41 WP MM NOT_NAMED 1913-08-28 12:00:00 NR 15.7010 117.863 main 195 195 __________P___ -1 15.7010 117.863 7 1 271
1913240N16118 1913 41 WP MM NOT_NAMED 1913-08-28 15:00:00 NR 15.7021 117.795 main 206 206 __________P___ -1 15.7021 117.795 7 2 270
1913240N16118 1913 41 WP MM NOT_NAMED 1913-08-28 18:00:00 NR 15.7023 117.700 main 216 216 __________P___ -1 15.7023 117.700 7 2 270
1913240N16118 1913 41 WP MM NOT_NAMED 1913-08-28 21:00:00 NR 15.7009 117.560 main 227 227 __________P___ -1 15.7009 117.560 7 3 269
1913240N16118 1913 41 WP MM NOT_NAMED 1913-08-28 22:00:00 NR 15.7000 117.500 main 237 237 __________O___ -1 15.7000 117.500 7 4 269
1913240N16118 1913 41 WP MM NOT_NAMED 1913-08-29 00:00:00 NR 15.6975 117.360 main 248 259 __________P___ -1 15.6975 117.360 7 4 269
1913240N16118 1913 41 WP MM NOT_NAMED 1913-08-29 03:00:00 NR 15.6936 117.111 main 280 280 __________P___ -1 15.6936 117.111 7 5 269
1913240N16118 1913 41 WP MM NOT_NAMED 1913-08-29 06:00:00 NR 15.6923 116.842 main 312 312 __________P___ -1 15.6923 116.842 7 5 270
1913240N16118 1913 41 WP MM NOT_NAMED 1913-08-29 09:00:00 NR 15.6967 116.581 main 333 333 __________P___ -1 15.6967 116.581 7 5 271
1913240N16118 1913 41 WP MM NOT_NAMED 1913-08-29 10:00:00 NR 15.7000 116.500 main 344 344 __________O___ -1 15.7000 116.500 7 3 274
1913240N16118 1913 41 WP MM NOT_NAMED 1913-08-29 12:00:00 NR 15.7079 116.403 main 354 354 __________P___ -1 15.7079 116.403 7 3 277
1913240N16118 1913 41 WP MM NOT_NAMED 1913-08-29 15:00:00 NR 15.7261 116.277 main 365 365 __________P___ -1 15.7261 116.277 7 3 280
1913240N16118 1913 41 WP MM NOT_NAMED 1913-08-29 18:00:00 NR 15.7523 116.127 main 385 385 __________P___ -1 15.7523 116.127 7 4 280
1913240N16118 1913 41 WP MM NOT_NAMED 1913-08-29 21:00:00 NR 15.7867 115.902 main 407 407 __________P___ -1 15.7867 115.902 7 5 279
1913240N16118 1913 41 WP MM NOT_NAMED 1913-08-29 22:00:00 NR 15.8000 115.800 main 417 417 __________O___ -1 15.8000 115.800 7 7 277
1913240N16118 1913 41 WP MM NOT_NAMED 1913-08-30 00:00:00 NR 15.8307 115.525 main 449 449 __________P___ -1 15.8307 115.525 7 9 276
1913240N16118 1913 41 WP MM NOT_NAMED 1913-08-30 03:00:00 NR 15.8828 115.023 main 502 502 __________P___ -1 15.8828 115.023 7 10 276
1913240N16118 1913 41 WP MM NOT_NAMED 1913-08-30 06:00:00 NR 15.9365 114.460 main 534 477 __________P___ -1 15.9365 114.460 7 11 275
1913240N16118 1913 41 WP MM NOT_NAMED 1913-08-30 09:00:00 NR 15.9856 113.886 main 477 462 __________P___ -1 15.9856 113.886 7 11 275
1913240N16118 1913 41 WP MM NOT_NAMED 1913-08-30 10:00:00 NR 16.0000 113.700 main 462 438 __________O___ -1 16.0000 113.700 7 10 274
1913240N16118 1913 41 WP MM NOT_NAMED 1913-08-30 12:00:00 NR 16.0167 113.374 main 438 402 __________P___ -1 16.0167 113.374 7 9 273
1913240N16118 1913 41 WP MM NOT_NAMED 1913-08-30 15:00:00 NR 16.0357 112.899 main 402 360 __________P___ -1 16.0357 112.899 7 9 272
1913240N16118 1913 41 WP MM NOT_NAMED 1913-08-30 18:00:00 NR 16.0557 112.430 main 360 333 __________P___ -1 16.0557 112.430 7 9 273
1913240N16118 1913 41 WP MM NOT_NAMED 1913-08-30 21:00:00 NR 16.0860 111.959 main 333 320 __________P___ -1 16.0860 111.959 7 9 274
1913240N16118 1913 41 WP MM NOT_NAMED 1913-08-30 22:00:00 NR 16.1000 111.800 main 320 296 __________O___ -1 16.1000 111.800 2 10 276
1913240N16118 1913 41 WP MM NOT_NAMED 1913-08-31 00:00:00 NR 16.1358 111.467 main 296 251 __________P___ -1 16.1358 111.467 2 10 277
1913240N16118 1913 41 WP MM NOT_NAMED 1913-08-31 03:00:00 NR 16.2023 110.961 main 251 210 __________P___ -1 16.2023 110.961 2 10 279
1913240N16118 1913 41 WP MM NOT_NAMED 1913-08-31 06:00:00 NR 16.2811 110.456 main 210 177 __________P___ -1 16.2811 110.456 2 10 280
1913240N16118 1913 41 WP MM NOT_NAMED 1913-08-31 09:00:00 NR 16.3691 109.961 main 177 162 __________P___ -1 16.3691 109.961 2 10 281
1913240N16118 1913 41 WP MM NOT_NAMED 1913-08-31 10:00:00 NR 16.4000 109.800 main 162 139 __________O___ -1 16.4000 109.800 2 9 282
1913240N16118 1913 41 WP MM NOT_NAMED 1913-08-31 12:00:00 NR 16.4634 109.485 main 139 100 __________P___ -1 16.4634 109.485 2 9 282
1913240N16118 1913 41 WP MM NOT_NAMED 1913-08-31 15:00:00 NR 16.5620 109.027 main 100 77 __________P___ -1 16.5620 109.027 2 9 283
1913240N16118 1913 41 WP MM NOT_NAMED 1913-08-31 18:00:00 NR 16.6633 108.583 main 77 54 __________P___ -1 16.6633 108.583 2 9 284
1913240N16118 1913 41 WP MM NOT_NAMED 1913-08-31 21:00:00 NR 16.7658 108.145 main 55 48 __________P___ -1 16.7658 108.145 2 9 284
1913240N16118 1913 41 WP MM NOT_NAMED 1913-08-31 22:00:00 NR 16.8000 108.000 main 48 __________O___ -1 16.8000 108.000 2 9 284

Digital Typhoon Data and Search

About IBTrACS Database

This database is a web-friendly format of International Best Track Archive for Climate Stewardship (IBTrACS), a global best track data archive curated by NOAA dating back to 1842.

Updated: 2021-11-26